createdAt,value
2023-04-16T00:01:33.893Z,23.98
2023-04-16T00:04:17.150Z,24.73
2023-04-16T00:06:54.055Z,21.77
2023-04-16T00:09:40.994Z,20.83
2023-04-16T00:15:09.665Z,18.90
2023-04-16T00:17:53.081Z,19.27
2023-04-16T00:20:44.477Z,15.18
2023-04-16T00:23:23.028Z,17.13
2023-04-16T00:26:06.491Z,16.63
2023-04-16T00:35:01.088Z,16.60
2023-04-16T00:37:44.355Z,15.98
2023-04-16T00:40:33.690Z,17.27
2023-04-16T00:43:09.833Z,19.15
2023-04-16T00:52:24.818Z,23.63
2023-04-16T00:55:00.226Z,23.50
2023-04-16T01:00:41.148Z,24.55
2023-04-16T01:03:16.384Z,24.63
2023-04-16T01:11:53.475Z,24.00
2023-04-16T01:23:25.870Z,24.05
2023-04-16T01:26:04.739Z,22.92
2023-04-16T01:31:44.435Z,24.58
2023-04-16T01:34:48.708Z,22.98
2023-04-16T01:37:23.809Z,24.63
2023-04-16T01:49:17.289Z,20.45
2023-04-16T01:51:57.157Z,22.27
2023-04-16T01:54:28.966Z,21.30
2023-04-16T01:57:03.910Z,23.15
2023-04-16T01:59:35.461Z,24.20
2023-04-16T02:02:11.798Z,22.15
2023-04-16T02:04:44.400Z,23.27
2023-04-16T02:10:06.525Z,23.65
2023-04-16T02:12:42.311Z,23.50
2023-04-16T02:15:20.807Z,40.70
2023-04-16T02:17:57.994Z,44.72
2023-04-16T02:20:30.349Z,36.92
2023-04-16T02:23:05.056Z,28.02
2023-04-16T02:25:41.680Z,26.55
2023-04-16T02:28:22.014Z,26.42
2023-04-16T02:31:01.456Z,29.77
2023-04-16T02:39:48.495Z,26.98
2023-04-16T02:52:42.990Z,32.10
2023-04-16T02:58:31.925Z,37.75
2023-04-16T03:01:08.212Z,37.47
2023-04-16T03:03:45.802Z,39.95
2023-04-16T03:06:24.572Z,45.65
2023-04-16T03:08:57.291Z,44.83
2023-04-16T03:11:30.737Z,44.20
2023-04-16T03:14:01.842Z,44.65
2023-04-16T03:16:36.344Z,52.10
2023-04-16T03:19:20.584Z,56.60
2023-04-16T03:22:00.837Z,48.28
2023-04-16T03:24:36.718Z,57.92
2023-04-16T03:30:02.016Z,67.97
2023-04-16T03:32:40.238Z,71.72
2023-04-16T03:35:53.778Z,73.75
2023-04-16T03:38:56.753Z,72.30
2023-04-16T03:42:02.065Z,74.80
2023-04-16T03:44:50.767Z,72.63
2023-04-16T03:47:39.566Z,69.35
2023-04-16T03:53:15.323Z,66.30
2023-04-16T03:55:47.450Z,65.35
2023-04-16T03:58:21.506Z,64.53
2023-04-16T04:00:52.961Z,59.30
2023-04-16T04:03:24.026Z,57.28
2023-04-16T04:05:55.141Z,57.67
2023-04-16T04:08:32.346Z,59.85
2023-04-16T04:11:02.999Z,61.70
2023-04-16T04:13:37.519Z,63.28
2023-04-16T04:16:09.281Z,62.25
2023-04-16T04:18:40.323Z,59.33
2023-04-16T04:21:11.760Z,58.75
2023-04-16T04:23:42.763Z,59.90
2023-04-16T04:26:13.889Z,74.05
2023-04-16T04:28:48.685Z,60.10
2023-04-16T04:31:21.780Z,64.13
2023-04-16T04:33:52.532Z,62.45
2023-04-16T04:36:23.508Z,66.32
2023-04-16T04:38:54.618Z,61.33
2023-04-16T04:41:27.626Z,65.10
2023-04-16T04:44:02.071Z,62.15
2023-04-16T04:46:32.929Z,56.75
2023-04-16T04:49:03.609Z,67.63
2023-04-16T04:51:35.503Z,63.67
2023-04-16T04:54:06.191Z,65.57
2023-04-16T04:56:37.138Z,62.25
2023-04-16T04:59:11.319Z,56.38
2023-04-16T05:01:43.264Z,58.33
2023-04-16T05:04:14.861Z,61.22
2023-04-16T05:06:45.306Z,57.85
2023-04-16T05:09:16.324Z,59.67
2023-04-16T05:11:47.318Z,58.40
2023-04-16T05:14:21.648Z,58.78
2023-04-16T05:16:52.934Z,57.00
2023-04-16T05:19:23.786Z,57.72
2023-04-16T05:21:54.549Z,58.70
2023-04-16T05:24:26.390Z,53.08
2023-04-16T05:26:57.118Z,55.03
2023-04-16T05:29:30.844Z,54.33
2023-04-16T05:32:02.335Z,50.40
2023-04-16T05:34:33.197Z,48.47
2023-04-16T05:37:04.161Z,50.58
2023-04-16T05:39:35.001Z,50.22
2023-04-16T05:42:08.553Z,42.72
2023-04-16T05:44:44.106Z,42.92
2023-04-16T05:47:14.552Z,42.05
2023-04-16T05:49:46.857Z,40.10
2023-04-16T05:52:17.368Z,39.50
2023-04-16T05:54:48.300Z,34.25
2023-04-16T05:57:19.448Z,34.40
2023-04-16T05:59:53.055Z,35.30
2023-04-16T06:02:24.365Z,34.53
2023-04-16T06:04:56.064Z,35.25
2023-04-16T06:07:27.283Z,31.85
2023-04-16T06:09:57.981Z,30.20
2023-04-16T06:12:30.156Z,30.08
2023-04-16T06:15:04.848Z,28.98
2023-04-16T06:17:36.500Z,26.70
2023-04-16T06:20:08.263Z,24.42
2023-04-16T06:22:41.908Z,24.58
2023-04-16T06:25:13.516Z,24.10
2023-04-16T07:16:27.371Z,19.92
2023-04-16T07:22:16.177Z,19.40
2023-04-16T07:24:53.338Z,17.17
2023-04-16T07:27:40.084Z,16.95
2023-04-16T07:30:16.556Z,18.75
2023-04-16T07:33:01.294Z,19.38
2023-04-16T07:35:49.333Z,19.02
2023-04-16T07:41:18.976Z,18.48
2023-04-16T07:44:05.721Z,18.85
2023-04-16T07:46:50.343Z,18.48
2023-04-16T07:49:40.514Z,17.40
2023-04-16T07:52:18.473Z,18.10
2023-04-16T07:55:01.028Z,17.70
2023-04-16T08:03:39.832Z,14.88
2023-04-16T08:09:10.532Z,13.45
2023-04-16T08:11:41.898Z,11.68
2023-04-16T08:14:12.872Z,13.55
2023-04-16T08:16:47.058Z,13.75
2023-04-16T08:19:18.220Z,12.02
2023-04-16T08:21:52.074Z,11.85
2023-04-16T08:27:15.446Z,11.93
2023-04-16T08:29:50.863Z,13.68
2023-04-16T08:32:25.716Z,11.30
2023-04-16T08:35:06.197Z,10.30
2023-04-16T08:37:40.463Z,10.55
2023-04-16T08:40:18.238Z,10.57
2023-04-16T08:42:57.740Z,10.65
2023-04-16T08:45:34.946Z,12.75
2023-04-16T08:48:08.499Z,11.48
2023-04-16T08:50:42.189Z,9.85
2023-04-16T08:53:28.393Z,9.98
2023-04-16T08:56:03.874Z,10.15
2023-04-16T08:58:37.387Z,9.35
2023-04-16T09:01:13.190Z,9.30
2023-04-16T09:03:57.400Z,8.32
2023-04-16T09:06:30.297Z,7.45
2023-04-16T09:09:08.626Z,7.82
2023-04-16T09:11:44.812Z,7.53
2023-04-16T09:14:16.890Z,7.30
2023-04-16T09:16:48.959Z,7.75
2023-04-16T09:19:22.409Z,7.63
2023-04-16T09:21:55.355Z,7.78
2023-04-16T09:24:30.278Z,8.27
2023-04-16T09:27:02.191Z,6.90
2023-04-16T09:29:46.282Z,8.45
2023-04-16T09:32:17.829Z,9.35
2023-04-16T09:35:06.132Z,9.40
2023-04-16T09:37:42.073Z,8.40
2023-04-16T09:40:33.710Z,15.68
2023-04-16T09:43:14.045Z,7.43
2023-04-16T09:45:55.584Z,6.78
2023-04-16T09:48:33.483Z,6.55
2023-04-16T09:51:07.798Z,6.90
2023-04-16T09:53:39.699Z,7.10
2023-04-16T09:56:16.147Z,6.30
2023-04-16T09:58:47.962Z,5.95
2023-04-16T10:01:22.000Z,6.30
2023-04-16T10:03:57.053Z,5.70
2023-04-16T10:06:29.479Z,6.10
2023-04-16T10:09:02.510Z,5.15
2023-04-16T10:11:36.823Z,5.60
2023-04-16T10:14:11.414Z,5.95
2023-04-16T10:16:44.595Z,6.03
2023-04-16T10:19:16.128Z,5.13
2023-04-16T10:21:47.116Z,4.30
2023-04-16T10:24:21.574Z,4.57
2023-04-16T10:26:58.241Z,4.93
2023-04-16T10:29:34.700Z,4.55
2023-04-16T10:32:17.574Z,5.25
2023-04-16T10:34:49.921Z,3.92
2023-04-16T10:37:21.836Z,4.18
2023-04-16T10:39:56.999Z,3.70
2023-04-16T10:42:31.772Z,4.57
2023-04-16T10:45:04.708Z,4.13
2023-04-16T10:47:36.737Z,3.42
2023-04-16T10:50:21.046Z,4.45
2023-04-16T10:52:54.893Z,4.35
2023-04-16T10:55:32.745Z,4.15
2023-04-16T10:58:27.835Z,3.90
2023-04-16T11:01:05.819Z,3.75
2023-04-16T11:03:38.812Z,3.90
2023-04-16T11:06:22.082Z,4.32
2023-04-16T11:09:08.516Z,3.95
2023-04-16T11:11:44.130Z,3.30
2023-04-16T11:14:30.698Z,3.58
2023-04-16T11:17:07.340Z,3.40
2023-04-16T11:19:41.268Z,3.42
2023-04-16T11:22:18.821Z,2.95
2023-04-16T11:24:57.432Z,3.03
2023-04-16T11:27:29.557Z,3.05
2023-04-16T11:30:05.166Z,3.70
2023-04-16T11:32:43.760Z,3.03
2023-04-16T11:35:20.231Z,2.90
2023-04-16T11:37:51.969Z,3.47
2023-04-16T11:40:23.560Z,3.05
2023-04-16T11:42:58.691Z,3.15
2023-04-16T11:45:33.675Z,2.45
2023-04-16T11:48:12.062Z,2.83
2023-04-16T11:50:44.700Z,3.13
2023-04-16T11:53:17.258Z,3.28
2023-04-16T11:58:23.915Z,2.90
2023-04-16T12:01:10.977Z,2.67
2023-04-16T12:03:50.068Z,3.85
2023-04-16T12:06:24.515Z,2.78
2023-04-16T12:08:56.177Z,2.70
2023-04-16T12:11:42.741Z,2.60
2023-04-16T12:14:16.964Z,2.63
2023-04-16T12:16:52.342Z,3.00
2023-04-16T12:19:53.482Z,2.55
2023-04-16T12:22:37.275Z,3.00
2023-04-16T12:25:16.313Z,3.10
2023-04-16T12:27:58.518Z,3.03
2023-04-16T12:30:34.008Z,2.88
2023-04-16T12:33:26.976Z,3.50
2023-04-16T12:36:08.290Z,3.58
2023-04-16T12:38:44.726Z,2.97
2023-04-16T12:41:19.992Z,2.83
2023-04-16T12:43:53.609Z,2.92
2023-04-16T12:46:27.457Z,2.72
2023-04-16T12:49:00.596Z,2.63
2023-04-16T12:51:35.449Z,2.33
2023-04-16T12:54:08.818Z,2.83
2023-04-16T12:56:44.156Z,2.70
2023-04-16T12:59:15.559Z,2.45
2023-04-16T13:01:48.128Z,2.47
2023-04-16T13:04:19.791Z,2.80
2023-04-16T13:06:55.469Z,2.20
2023-04-16T13:09:28.349Z,3.15
2023-04-16T13:14:32.287Z,2.85
2023-04-16T13:17:08.412Z,2.15
2023-04-16T13:19:39.512Z,2.90
2023-04-16T13:22:15.215Z,2.28
2023-04-16T13:24:47.768Z,2.50
2023-04-16T13:27:21.263Z,1.98
2023-04-16T13:32:29.664Z,2.25
2023-04-16T13:35:01.242Z,2.30
2023-04-16T13:37:39.253Z,2.28
2023-04-16T13:40:14.173Z,2.17
2023-04-16T13:42:48.330Z,2.22
2023-04-16T13:45:20.847Z,2.65
2023-04-16T13:47:53.905Z,2.22
2023-04-16T13:50:25.221Z,2.03
2023-04-16T13:52:59.062Z,2.30
2023-04-16T13:55:31.795Z,2.20
2023-04-16T13:58:07.840Z,3.13
2023-04-16T14:00:38.959Z,2.38
2023-04-16T14:03:10.400Z,2.22
2023-04-16T14:05:46.552Z,2.45
2023-04-16T14:08:55.422Z,2.67
2023-04-16T14:12:05.307Z,2.70
2023-04-16T14:15:01.670Z,3.25
2023-04-16T14:20:45.931Z,2.47
2023-04-16T14:23:29.862Z,2.45
2023-04-16T14:26:31.915Z,2.88
2023-04-16T14:29:25.660Z,3.42
2023-04-16T14:32:26.317Z,2.80
2023-04-16T14:35:17.574Z,2.00
2023-04-16T14:38:20.890Z,2.08
2023-04-16T14:41:45.464Z,2.72
2023-04-16T14:53:39.813Z,3.67
2023-04-16T14:56:43.298Z,2.72
2023-04-16T14:59:50.767Z,2.63
2023-04-16T15:02:39.260Z,2.55
2023-04-16T15:05:31.932Z,1.92
2023-04-16T15:08:23.633Z,2.20
2023-04-16T15:10:57.301Z,2.00
2023-04-16T15:13:36.375Z,3.13
2023-04-16T15:16:07.545Z,3.20
2023-04-16T15:18:40.500Z,3.03
2023-04-16T15:21:12.582Z,3.22
2023-04-16T15:23:43.090Z,2.75
2023-04-16T15:26:13.251Z,2.75
2023-04-16T15:28:43.457Z,2.92
2023-04-16T15:31:14.308Z,2.33
2023-04-16T15:33:47.330Z,3.35
2023-04-16T15:36:18.453Z,2.92
2023-04-16T15:38:48.730Z,2.90
2023-04-16T15:41:22.058Z,2.70
2023-04-16T15:43:52.442Z,3.03
2023-04-16T15:46:22.746Z,2.63
2023-04-16T15:48:55.591Z,2.90
2023-04-16T15:51:27.442Z,4.18
2023-04-16T15:53:57.872Z,4.28
2023-04-16T15:56:28.728Z,4.00
2023-04-16T15:58:58.893Z,4.00
2023-04-16T16:01:29.126Z,4.30
2023-04-16T16:04:12.020Z,4.70
2023-04-16T16:06:42.534Z,5.43
2023-04-16T16:09:15.618Z,4.10
2023-04-16T16:14:28.570Z,3.42
2023-04-16T16:16:58.792Z,3.17
2023-04-16T16:19:31.867Z,2.40
2023-04-16T16:22:02.400Z,2.67
2023-04-16T16:24:33.056Z,3.40
2023-04-16T16:27:03.255Z,3.22
2023-04-16T16:29:33.516Z,3.25
2023-04-16T16:32:04.399Z,2.70
2023-04-16T16:34:37.658Z,2.53
2023-04-16T16:37:08.085Z,2.78
2023-04-16T16:39:38.961Z,2.95
2023-04-16T16:42:09.552Z,2.60
2023-04-16T16:44:40.117Z,2.33
2023-04-16T16:47:10.412Z,2.40
2023-04-16T16:49:43.815Z,2.72
2023-04-16T16:52:16.939Z,2.53
2023-04-16T16:54:47.132Z,2.92
2023-04-16T16:57:17.516Z,3.50
2023-04-16T16:59:47.879Z,3.53
2023-04-16T17:02:18.174Z,5.93
2023-04-16T17:04:52.118Z,3.25
2023-04-16T17:07:22.396Z,4.22
2023-04-16T17:09:52.701Z,3.92
2023-04-16T17:12:23.881Z,3.40
2023-04-16T17:14:56.135Z,3.53
2023-04-16T17:17:26.548Z,3.28
2023-04-16T17:20:01.416Z,3.20
2023-04-16T17:22:31.940Z,3.15
2023-04-16T17:25:06.310Z,3.35
2023-04-16T17:27:37.335Z,3.10
2023-04-16T17:30:14.965Z,3.30
2023-04-16T17:32:50.597Z,3.40
2023-04-16T17:35:26.470Z,2.80
2023-04-16T17:37:58.518Z,2.90
2023-04-16T17:40:31.738Z,3.58
2023-04-16T17:43:04.293Z,3.50
2023-04-16T17:45:43.909Z,3.17
2023-04-16T17:48:20.574Z,3.10
2023-04-16T17:50:53.534Z,3.00
2023-04-16T17:53:23.724Z,3.27
2023-04-16T17:55:58.551Z,3.80
2023-04-16T17:58:35.355Z,4.22
2023-04-16T18:01:06.510Z,4.15
2023-04-16T18:03:37.415Z,3.45
2023-04-16T18:06:14.232Z,3.00
2023-04-16T18:08:48.818Z,3.50
2023-04-16T18:11:20.761Z,4.05
2023-04-16T18:13:53.107Z,4.40
2023-04-16T18:16:23.470Z,4.82
2023-04-16T18:18:53.781Z,7.57
2023-04-16T18:21:26.598Z,5.60
2023-04-16T18:23:56.869Z,4.43
2023-04-16T18:26:29.713Z,4.32
2023-04-16T18:29:03.917Z,4.53
2023-04-16T18:31:34.362Z,4.68
2023-04-16T18:34:05.562Z,4.40
2023-04-16T18:36:38.777Z,4.43
2023-04-16T18:39:09.200Z,4.38
2023-04-16T18:41:40.334Z,4.63
2023-04-16T18:44:11.168Z,5.25
2023-04-16T18:46:43.112Z,5.00
2023-04-16T18:49:15.682Z,5.95
2023-04-16T18:51:51.304Z,6.28
2023-04-16T18:54:22.384Z,5.95
2023-04-16T18:56:53.468Z,6.15
2023-04-16T18:59:28.523Z,5.57
2023-04-16T19:01:59.687Z,5.72
2023-04-16T19:04:32.614Z,6.20
2023-04-16T19:07:19.022Z,6.90
2023-04-16T19:09:49.310Z,6.22
2023-04-16T19:12:20.117Z,6.25
2023-04-16T19:14:50.328Z,6.70
2023-04-16T19:17:21.053Z,6.82
2023-04-16T19:19:55.221Z,6.75
2023-04-16T19:22:28.018Z,6.55
2023-04-16T19:24:58.238Z,6.30
2023-04-16T19:27:34.410Z,6.80
2023-04-16T19:30:04.935Z,6.53
2023-04-16T19:32:36.880Z,7.00
2023-04-16T19:35:14.366Z,7.18
2023-04-16T19:37:50.744Z,8.15
2023-04-16T19:40:21.432Z,8.10
2023-04-16T19:42:51.866Z,7.10
2023-04-16T19:45:28.457Z,6.55
2023-04-16T19:48:01.716Z,7.03
2023-04-16T19:50:32.195Z,7.35
2023-04-16T19:53:07.387Z,6.27
2023-04-16T19:55:42.210Z,6.60
2023-04-16T19:58:12.875Z,7.80
2023-04-16T20:00:43.827Z,6.78
2023-04-16T20:03:17.423Z,6.35
2023-04-16T20:08:24.687Z,6.25
2023-04-16T20:10:56.674Z,4.93
2023-04-16T20:13:27.012Z,5.15
2023-04-16T20:15:58.101Z,5.20
2023-04-16T20:18:42.177Z,4.70
2023-04-16T20:23:50.087Z,5.00
2023-04-16T20:26:21.290Z,4.75
2023-04-16T20:28:53.530Z,4.78
2023-04-16T20:31:24.359Z,4.30
2023-04-16T20:33:54.754Z,4.20
2023-04-16T20:36:25.106Z,4.82
2023-04-16T20:38:59.644Z,4.20
2023-04-16T20:41:30.861Z,4.32
2023-04-16T20:44:05.422Z,4.30
2023-04-16T20:46:36.602Z,4.05
2023-04-16T20:49:08.058Z,4.63
2023-04-16T20:51:38.645Z,4.85
2023-04-16T20:54:11.589Z,4.43
2023-04-16T20:56:41.868Z,4.57
2023-04-16T20:59:13.507Z,4.00
2023-04-16T21:01:43.736Z,4.05
2023-04-16T21:04:14.093Z,3.92
2023-04-16T21:06:44.389Z,4.30
2023-04-16T21:09:17.172Z,4.00
2023-04-16T21:11:47.463Z,3.97
2023-04-16T21:14:17.750Z,4.30
2023-04-16T21:16:47.972Z,3.92
2023-04-16T21:19:29.120Z,4.07
2023-04-16T21:21:59.490Z,3.97
2023-04-16T21:24:32.322Z,4.10
2023-04-16T21:27:02.597Z,4.10
2023-04-16T21:29:33.015Z,3.88
2023-04-16T21:32:03.316Z,5.00
2023-04-16T21:34:33.651Z,5.38
2023-04-16T21:37:03.986Z,5.07
2023-04-16T21:39:37.082Z,4.88
2023-04-16T21:42:07.403Z,4.78
2023-04-16T21:44:37.599Z,4.35
2023-04-16T21:47:07.925Z,4.75
2023-04-16T21:49:38.170Z,4.70
2023-04-16T21:52:14.380Z,4.68
2023-04-16T21:54:47.530Z,4.35
2023-04-16T21:57:17.740Z,4.10
2023-04-16T21:59:47.933Z,4.18
2023-04-16T22:02:18.346Z,4.28
2023-04-16T22:04:48.998Z,4.25
2023-04-16T22:07:20.879Z,4.28
2023-04-16T22:09:53.696Z,3.22
2023-04-16T22:12:23.885Z,3.90
2023-04-16T22:15:02.509Z,3.30
2023-04-16T22:17:34.378Z,3.40
2023-04-16T22:20:07.119Z,3.92
2023-04-16T22:22:37.390Z,3.85
2023-04-16T22:25:11.104Z,4.38
2023-04-16T22:27:41.458Z,4.63
2023-04-16T22:30:13.427Z,4.53
2023-04-16T22:32:43.623Z,4.68
2023-04-16T22:35:13.870Z,4.35
2023-04-16T22:37:44.059Z,3.78
2023-04-16T22:40:17.040Z,4.03
2023-04-16T22:42:48.005Z,3.83
2023-04-16T22:45:18.678Z,4.40
2023-04-16T22:47:48.975Z,5.05
2023-04-16T22:50:19.665Z,4.45
2023-04-16T22:52:49.840Z,4.72
2023-04-16T22:55:23.185Z,5.10
2023-04-16T22:57:53.422Z,4.55
2023-04-16T23:00:25.179Z,5.30
2023-04-16T23:02:55.526Z,5.20
2023-04-16T23:05:26.113Z,4.50
2023-04-16T23:07:56.273Z,4.72
2023-04-16T23:10:29.052Z,5.28
2023-04-16T23:12:59.270Z,5.25
2023-04-16T23:15:30.891Z,5.03
2023-04-16T23:18:01.361Z,5.20
2023-04-16T23:20:32.388Z,6.10
2023-04-16T23:23:02.582Z,5.68
2023-04-16T23:25:35.443Z,7.07
2023-04-16T23:28:05.664Z,5.57
2023-04-16T23:30:37.889Z,5.80
2023-04-16T23:33:08.171Z,5.80
2023-04-16T23:35:38.376Z,6.40
2023-04-16T23:38:08.571Z,6.25
2023-04-16T23:40:41.471Z,6.75
2023-04-16T23:43:11.759Z,6.83
2023-04-16T23:45:42.096Z,7.05
2023-04-16T23:48:12.407Z,6.97
2023-04-16T23:50:42.706Z,6.35
2023-04-16T23:53:12.916Z,7.32
2023-04-16T23:55:46.907Z,7.60
2023-04-16T23:58:17.204Z,7.07
